Time;durP1;ratioP1;P1;durP2;ratioP2;P2;SDS_P1;SDS_P2;PMS_P1;PMS_P2;Temp;Humidity;BMP_temperature;BMP_pressure;BME280_temperature;BME280_humidity;BME280_pressure;Samples;Min_cycle;Max_cycle;Signal;HPM_P1;HPM_P2
2023/07/26 00:04:41;;;;;;;6.05;4.47;;;;;;;;;;9981198;28;20068;-72
2023/07/26 00:09:33;;;;;;;10.20;4.15;;;;;;;;;;9971345;28;20042;-72
2023/07/26 00:14:25;;;;;;;11.15;5.65;;;;;;;;;;9979947;28;20043;-72
2023/07/26 00:19:19;;;;;;;6.18;4.40;;;;;;;;;;9973457;28;20354;-72
2023/07/26 00:24:11;;;;;;;10.70;5.18;;;;;;;;;;9977742;28;20042;-72
2023/07/26 00:29:03;;;;;;;6.38;4.00;;;;;;;;;;9975984;28;20042;-71
2023/07/26 00:33:58;;;;;;;6.80;4.05;;;;;;;;;;9985192;28;20648;-72
2023/07/26 00:38:50;;;;;;;8.00;3.50;;;;;;;;;;9990995;28;20047;-72
2023/07/26 00:43:42;;;;;;;5.90;3.55;;;;;;;;;;9989733;28;20125;-72
2023/07/26 00:48:37;;;;;;;4.20;3.20;;;;;;;;;;9977770;28;20548;-72
2023/07/26 00:53:29;;;;;;;4.88;3.17;;;;;;;;;;9992190;28;20452;-72
2023/07/26 00:58:22;;;;;;;5.03;2.88;;;;;;;;;;9991093;28;20078;-72
2023/07/26 01:03:14;;;;;;;3.70;2.95;;;;;;;;;;9975051;28;20065;-72
2023/07/26 01:08:21;;;;;;;5.03;3.38;;;;;;;;;;9993103;28;20105;-70
2023/07/26 01:13:26;;;;;;;7.95;2.78;;;;;;;;;;9989259;28;20520;-70
2023/07/26 01:18:18;;;;;;;7.70;2.80;;;;;;;;;;9951632;28;20046;-69
2023/07/26 01:23:10;;;;;;;4.78;2.83;;;;;;;;;;9967126;28;20381;-70
2023/07/26 01:28:02;;;;;;;5.78;2.97;;;;;;;;;;9992895;28;20091;-70
2023/07/26 01:32:57;;;;;;;6.63;3.63;;;;;;;;;;9992039;28;20361;-70
2023/07/26 01:37:51;;;;;;;7.82;3.60;;;;;;;;;;9989639;28;20042;-69
2023/07/26 01:42:43;;;;;;;11.65;4.97;;;;;;;;;;9991152;28;20058;-71
2023/07/26 01:47:35;;;;;;;6.05;3.65;;;;;;;;;;9972319;28;20049;-71
2023/07/26 01:52:27;;;;;;;7.18;4.15;;;;;;;;;;9990450;28;20128;-69
2023/07/26 01:57:25;;;;;;;8.55;4.55;;;;;;;;;;9990297;28;20085;-69
2023/07/26 02:02:17;;;;;;;8.25;4.78;;;;;;;;;;9988508;28;20047;-69
2023/07/26 02:07:08;;;;;;;6.15;5.40;;;;;;;;;;9988570;28;20053;-71
2023/07/26 02:12:00;;;;;;;9.30;6.32;;;;;;;;;;9981731;28;20053;-71
2023/07/26 02:16:52;;;;;;;9.93;5.70;;;;;;;;;;9986730;28;20096;-70
2023/07/26 02:21:44;;;;;;;8.80;5.93;;;;;;;;;;9987084;28;20042;-70
2023/07/26 02:26:36;;;;;;;9.93;5.57;;;;;;;;;;9987675;28;20546;-70
2023/07/26 02:31:28;;;;;;;7.00;4.47;;;;;;;;;;9988540;28;20046;-70
2023/07/26 02:36:20;;;;;;;7.80;5.43;;;;;;;;;;9981405;28;20097;-70
2023/07/26 02:41:12;;;;;;;7.70;4.07;;;;;;;;;;9988303;28;20043;-70
2023/07/26 02:46:04;;;;;;;5.80;4.38;;;;;;;;;;9983592;28;20046;-70
2023/07/26 02:50:55;;;;;;;8.48;4.88;;;;;;;;;;9976275;28;20054;-69
2023/07/26 02:55:47;;;;;;;5.65;4.68;;;;;;;;;;9948044;28;20071;-70
2023/07/26 03:00:39;;;;;;;8.13;4.50;;;;;;;;;;9981028;28;20105;-70
2023/07/26 03:05:31;;;;;;;7.88;4.43;;;;;;;;;;9984971;28;20499;-71
2023/07/26 03:10:23;;;;;;;4.65;3.88;;;;;;;;;;9985683;28;20061;-70
2023/07/26 03:15:15;;;;;;;9.77;5.03;;;;;;;;;;9987427;28;20098;-70
2023/07/26 03:20:07;;;;;;;7.05;4.75;;;;;;;;;;9985317;28;20050;-70
2023/07/26 03:24:59;;;;;;;7.03;4.70;;;;;;;;;;10001225;28;20054;-71
2023/07/26 03:29:51;;;;;;;8.23;5.38;;;;;;;;;;9988323;28;20404;-70
2023/07/26 03:34:43;;;;;;;7.03;4.70;;;;;;;;;;9988203;28;20121;-70
2023/07/26 03:39:35;;;;;;;7.43;5.38;;;;;;;;;;9979465;28;20057;-70
2023/07/26 03:44:26;;;;;;;9.65;6.22;;;;;;;;;;9984796;28;20042;-70
2023/07/26 03:49:18;;;;;;;7.80;5.28;;;;;;;;;;9985691;28;20097;-70
2023/07/26 03:54:10;;;;;;;11.98;6.15;;;;;;;;;;9985442;28;20365;-70
2023/07/26 03:59:02;;;;;;;8.18;4.22;;;;;;;;;;9986042;28;20370;-71
2023/07/26 04:03:54;;;;;;;7.50;4.03;;;;;;;;;;9986153;28;20097;-73
2023/07/26 04:08:46;;;;;;;6.28;4.80;;;;;;;;;;9987316;28;20169;-70
2023/07/26 04:13:38;;;;;;;11.95;4.70;;;;;;;;;;9983422;28;20133;-70
2023/07/26 04:18:30;;;;;;;8.35;4.22;;;;;;;;;;9984307;28;20049;-70
2023/07/26 04:23:21;;;;;;;6.15;3.67;;;;;;;;;;9984413;28;20085;-70
2023/07/26 04:28:13;;;;;;;6.43;3.45;;;;;;;;;;9984340;28;20038;-70
2023/07/26 04:33:05;;;;;;;3.72;2.70;;;;;;;;;;9985979;28;20042;-71
2023/07/26 04:37:57;;;;;;;5.47;3.13;;;;;;;;;;9985967;28;20122;-72
2023/07/26 04:42:49;;;;;;;4.53;2.58;;;;;;;;;;9983269;28;20042;-71
2023/07/26 04:47:41;;;;;;;3.00;2.70;;;;;;;;;;9984317;28;20042;-71
2023/07/26 04:52:37;;;;;;;3.20;2.10;;;;;;;;;;9985291;28;20101;-71
2023/07/26 04:57:29;;;;;;;4.47;1.98;;;;;;;;;;9983962;28;20066;-71
2023/07/26 05:02:21;;;;;;;3.55;1.88;;;;;;;;;;9985144;28;20112;-71
2023/07/26 05:07:13;;;;;;;3.15;1.95;;;;;;;;;;9982513;28;20058;-72
2023/07/26 05:12:05;;;;;;;3.33;1.38;;;;;;;;;;9984679;28;20050;-71
2023/07/26 05:16:57;;;;;;;2.30;1.70;;;;;;;;;;9985252;28;20042;-71
2023/07/26 05:21:49;;;;;;;4.25;1.75;;;;;;;;;;9986586;28;20161;-71
2023/07/26 05:26:41;;;;;;;2.55;1.50;;;;;;;;;;9989378;28;20038;-72
2023/07/26 05:31:32;;;;;;;4.63;1.70;;;;;;;;;;9991195;28;20073;-72
2023/07/26 05:36:25;;;;;;;2.97;1.50;;;;;;;;;;9990515;28;20130;-71
2023/07/26 05:41:17;;;;;;;6.05;1.52;;;;;;;;;;9990043;28;20042;-72
2023/07/26 05:46:08;;;;;;;5.85;1.85;;;;;;;;;;9990777;28;20101;-72
2023/07/26 05:51:00;;;;;;;4.15;1.90;;;;;;;;;;9990458;28;20100;-71
2023/07/26 05:55:52;;;;;;;3.25;1.88;;;;;;;;;;9991073;28;20046;-72
2023/07/26 06:00:44;;;;;;;5.82;1.80;;;;;;;;;;9991279;28;20046;-72
2023/07/26 06:05:36;;;;;;;5.78;1.42;;;;;;;;;;9988208;28;20038;-71
2023/07/26 06:10:28;;;;;;;1.90;1.65;;;;;;;;;;9985729;28;20118;-71
2023/07/26 06:15:20;;;;;;;5.15;1.70;;;;;;;;;;9984599;28;20046;-70
2023/07/26 06:20:12;;;;;;;18.67;2.85;;;;;;;;;;9984693;28;20047;-71
2023/07/26 06:25:04;;;;;;;3.13;1.63;;;;;;;;;;9984550;28;20042;-70
2023/07/26 06:29:56;;;;;;;3.88;1.75;;;;;;;;;;9986689;28;20531;-71
2023/07/26 06:34:48;;;;;;;2.83;1.80;;;;;;;;;;9992412;28;20064;-71
2023/07/26 06:39:40;;;;;;;4.70;1.75;;;;;;;;;;10000900;28;20046;-71
2023/07/26 06:44:32;;;;;;;4.35;2.08;;;;;;;;;;9983489;28;20085;-70
2023/07/26 06:49:24;;;;;;;2.17;1.70;;;;;;;;;;9984459;28;20484;-71
2023/07/26 06:54:16;;;;;;;4.63;2.03;;;;;;;;;;9983211;28;20504;-71
2023/07/26 06:59:12;;;;;;;4.65;1.90;;;;;;;;;;9983603;28;20054;-71
2023/07/26 07:04:04;;;;;;;1.70;1.60;;;;;;;;;;9982833;28;20046;-70
2023/07/26 07:09:05;;;;;;;1.30;1.17;;;;;;;;;;9984057;28;20054;-71
2023/07/26 07:13:57;;;;;;;1.30;1.00;;;;;;;;;;9983355;28;20046;-71
2023/07/26 07:18:49;;;;;;;1.67;1.05;;;;;;;;;;9983017;28;20058;-71
2023/07/26 07:23:41;;;;;;;4.93;1.40;;;;;;;;;;9983457;28;20046;-71
2023/07/26 07:28:33;;;;;;;1.25;0.93;;;;;;;;;;9983693;28;20051;-70
2023/07/26 07:33:25;;;;;;;1.75;1.48;;;;;;;;;;9982469;28;20408;-70
2023/07/26 07:38:17;;;;;;;1.55;1.30;;;;;;;;;;9982943;28;20053;-70
2023/07/26 07:43:08;;;;;;;1.40;1.13;;;;;;;;;;9971918;28;20150;-71
2023/07/26 07:48:00;;;;;;;3.45;1.17;;;;;;;;;;9976397;28;20038;-70
2023/07/26 07:52:52;;;;;;;3.50;0.90;;;;;;;;;;9981597;28;20086;-70
2023/07/26 07:57:44;;;;;;;2.47;0.80;;;;;;;;;;9980029;28;20057;-70
2023/07/26 08:02:36;;;;;;;1.38;0.88;;;;;;;;;;9981449;28;20122;-70
2023/07/26 08:07:28;;;;;;;1.58;0.82;;;;;;;;;;9981704;28;20042;-72
2023/07/26 08:12:20;;;;;;;2.35;0.80;;;;;;;;;;9980473;28;20042;-70
2023/07/26 08:17:12;;;;;;;1.58;1.00;;;;;;;;;;9980799;28;20388;-71
2023/07/26 08:22:04;;;;;;;1.45;1.10;;;;;;;;;;9981931;28;20129;-69
2023/07/26 08:26:58;;;;;;;2.45;1.10;;;;;;;;;;9981787;28;20050;-70
2023/07/26 08:31:50;;;;;;;1.85;1.20;;;;;;;;;;9981198;28;20420;-70
2023/07/26 08:36:42;;;;;;;1.73;1.30;;;;;;;;;;9981359;28;20057;-71
2023/07/26 08:41:34;;;;;;;1.52;1.05;;;;;;;;;;9980958;28;20125;-70
2023/07/26 08:46:27;;;;;;;3.40;1.13;;;;;;;;;;9980496;28;20392;-68
2023/07/26 08:51:20;;;;;;;1.30;1.02;;;;;;;;;;9980081;28;20046;-68
2023/07/26 08:56:14;;;;;;;2.78;1.00;;;;;;;;;;9983509;28;20133;-66
2023/07/26 09:01:06;;;;;;;3.63;1.55;;;;;;;;;;9988017;28;20054;-68
2023/07/26 09:06:03;;;;;;;2.55;1.15;;;;;;;;;;9987947;28;20616;-67
2023/07/26 09:10:55;;;;;;;1.48;1.30;;;;;;;;;;9989519;28;20046;-68
2023/07/26 09:15:48;;;;;;;1.98;1.25;;;;;;;;;;9987711;28;20074;-71
2023/07/26 09:20:40;;;;;;;1.95;1.30;;;;;;;;;;9987096;28;20332;-69
2023/07/26 09:25:43;;;;;;;1.65;0.93;;;;;;;;;;10012507;28;20389;-69
2023/07/26 09:30:36;;;;;;;2.25;1.58;;;;;;;;;;10029131;28;20048;-68
2023/07/26 09:35:31;;;;;;;2.60;1.20;;;;;;;;;;10027741;28;20038;-67
2023/07/26 09:40:32;;;;;;;1.98;1.55;;;;;;;;;;10028365;28;20061;-67
2023/07/26 09:45:30;;;;;;;1.73;1.20;;;;;;;;;;10028887;28;20054;-67
2023/07/26 09:50:25;;;;;;;2.13;1.60;;;;;;;;;;10028159;28;20042;-66
2023/07/26 09:55:29;;;;;;;5.32;1.80;;;;;;;;;;10011436;28;20053;-67
2023/07/26 10:00:26;;;;;;;6.13;1.60;;;;;;;;;;10023066;28;20464;-66
2023/07/26 10:05:19;;;;;;;4.13;1.77;;;;;;;;;;10006283;28;20057;-66
2023/07/26 10:10:12;;;;;;;1.50;1.20;;;;;;;;;;9972297;28;20047;-68
2023/07/26 10:15:05;;;;;;;3.45;1.67;;;;;;;;;;9970294;28;20559;-69
2023/07/26 10:19:58;;;;;;;1.50;1.25;;;;;;;;;;9973564;28;20109;-69
2023/07/26 10:24:49;;;;;;;3.47;1.50;;;;;;;;;;9969246;28;20050;-69
2023/07/26 10:29:41;;;;;;;3.13;1.42;;;;;;;;;;9963621;28;20449;-67
2023/07/26 10:34:34;;;;;;;2.35;1.25;;;;;;;;;;9951620;28;20074;-67
2023/07/26 10:39:33;;;;;;;3.22;1.50;;;;;;;;;;9964593;28;20061;-67
2023/07/26 10:44:25;;;;;;;1.65;1.20;;;;;;;;;;9961936;28;20412;-68
2023/07/26 10:49:24;;;;;;;2.92;1.35;;;;;;;;;;9972601;28;20038;-67
2023/07/26 10:54:39;;;;;;;1.90;1.35;;;;;;;;;;9966395;28;20086;-68
2023/07/26 10:59:31;;;;;;;2.85;1.27;;;;;;;;;;9963100;28;20039;-68
2023/07/26 11:04:23;;;;;;;1.17;1.08;;;;;;;;;;9958612;28;20488;-67
2023/07/26 11:09:26;;;;;;;3.55;1.52;;;;;;;;;;9970754;28;20065;-66
2023/07/26 11:14:18;;;;;;;1.55;1.00;;;;;;;;;;9975382;28;20046;-67
2023/07/26 11:19:10;;;;;;;2.58;1.55;;;;;;;;;;9965222;28;20101;-67
2023/07/26 11:24:02;;;;;;;1.90;1.58;;;;;;;;;;9978301;28;20121;-68
2023/07/26 11:28:57;;;;;;;1.73;1.50;;;;;;;;;;9981801;28;20070;-68
2023/07/26 11:33:51;;;;;;;1.90;1.15;;;;;;;;;;9967632;28;20046;-66
2023/07/26 11:38:43;;;;;;;2.05;1.27;;;;;;;;;;9966272;28;20355;-67
2023/07/26 11:43:38;;;;;;;4.07;1.58;;;;;;;;;;9968059;28;20567;-67
2023/07/26 11:48:30;;;;;;;2.75;1.67;;;;;;;;;;9972100;28;20129;-68
2023/07/26 11:53:30;;;;;;;2.53;1.40;;;;;;;;;;9963475;28;20074;-68
2023/07/26 11:58:35;;;;;;;4.47;1.58;;;;;;;;;;9974365;28;20050;-68
2023/07/26 12:03:27;;;;;;;1.42;1.15;;;;;;;;;;9973486;28;20047;-68
2023/07/26 12:08:20;;;;;;;1.40;1.05;;;;;;;;;;9974286;28;20070;-68
2023/07/26 12:13:23;;;;;;;2.83;1.20;;;;;;;;;;9971469;28;20042;-67
2023/07/26 12:18:15;;;;;;;1.80;1.40;;;;;;;;;;9967006;28;20108;-66
2023/07/26 12:23:07;;;;;;;1.65;1.00;;;;;;;;;;9982296;28;20142;-70
2023/07/26 12:27:59;;;;;;;2.22;1.55;;;;;;;;;;10015385;28;20104;-66
2023/07/26 12:33:08;;;;;;;1.27;1.13;;;;;;;;;;10026634;28;20042;-69
2023/07/26 12:38:10;;;;;;;1.67;1.20;;;;;;;;;;10028433;28;20053;-67
2023/07/26 12:43:29;;;;;;;2.85;1.13;;;;;;;;;;10001264;28;20045;-68
2023/07/26 12:48:25;;;;;;;0.88;0.88;;;;;;;;;;10030242;28;20247;-68
2023/07/26 12:53:18;;;;;;;2.53;1.00;;;;;;;;;;10012060;28;20050;-69
2023/07/26 12:58:10;;;;;;;2.30;1.40;;;;;;;;;;9991390;28;20050;-68
2023/07/26 13:03:02;;;;;;;0.98;0.88;;;;;;;;;;10023073;28;20131;-69
2023/07/26 13:07:55;;;;;;;1.42;1.02;;;;;;;;;;10024947;28;20042;-69
2023/07/26 13:12:46;;;;;;;2.10;1.00;;;;;;;;;;10026410;28;20060;-68
2023/07/26 13:17:38;;;;;;;2.78;1.02;;;;;;;;;;10031008;28;20045;-68
2023/07/26 13:22:31;;;;;;;2.53;1.05;;;;;;;;;;10001644;28;20078;-69
2023/07/26 13:27:23;;;;;;;1.50;1.10;;;;;;;;;;10013103;28;20056;-67
2023/07/26 13:32:15;;;;;;;0.90;0.85;;;;;;;;;;9965298;28;20047;-71
2023/07/26 13:37:07;;;;;;;4.22;1.27;;;;;;;;;;9974071;28;20099;-65
2023/07/26 13:41:59;;;;;;;2.00;1.17;;;;;;;;;;9976223;28;20456;-67
2023/07/26 13:46:51;;;;;;;1.25;0.98;;;;;;;;;;9954468;28;20097;-67
2023/07/26 13:51:43;;;;;;;0.73;0.73;;;;;;;;;;9965886;28;20093;-67
2023/07/26 13:56:35;;;;;;;0.82;0.82;;;;;;;;;;9969567;28;20142;-70
2023/07/26 14:01:27;;;;;;;1.20;0.80;;;;;;;;;;9966597;28;20072;-71
2023/07/26 14:06:24;;;;;;;1.25;1.00;;;;;;;;;;9983813;28;20050;-68
2023/07/26 14:11:16;;;;;;;3.55;1.00;;;;;;;;;;9982350;28;20070;-70
2023/07/26 14:16:09;;;;;;;1.13;0.90;;;;;;;;;;9958791;28;20415;-69
2023/07/26 14:21:13;;;;;;;1.88;0.85;;;;;;;;;;9948404;28;20042;-70
2023/07/26 14:26:05;;;;;;;1.40;0.80;;;;;;;;;;9981562;28;20054;-68
2023/07/26 14:30:57;;;;;;;1.58;1.00;;;;;;;;;;9981430;28;20679;-70
2023/07/26 14:35:49;;;;;;;1.15;1.00;;;;;;;;;;9962764;28;20153;-67
2023/07/26 14:40:41;;;;;;;1.38;0.80;;;;;;;;;;10005938;28;20067;-67
2023/07/26 14:45:33;;;;;;;0.70;0.50;;;;;;;;;;9973781;28;20623;-65
2023/07/26 14:50:26;;;;;;;3.20;0.70;;;;;;;;;;9991592;28;20129;-68
2023/07/26 14:55:18;;;;;;;0.98;0.98;;;;;;;;;;10001107;28;20042;-66
2023/07/26 15:00:10;;;;;;;0.88;0.60;;;;;;;;;;9969077;28;20342;-66
2023/07/26 15:05:03;;;;;;;1.38;1.23;;;;;;;;;;9966131;28;20039;-64
2023/07/26 15:09:56;;;;;;;0.68;0.68;;;;;;;;;;9977423;28;20073;-66
2023/07/26 15:14:48;;;;;;;1.15;1.02;;;;;;;;;;9981550;28;20042;-64
2023/07/26 15:19:41;;;;;;;1.73;0.90;;;;;;;;;;9976749;28;20042;-64
2023/07/26 15:24:33;;;;;;;1.85;0.68;;;;;;;;;;9970272;28;20101;-64
2023/07/26 15:29:26;;;;;;;2.13;0.88;;;;;;;;;;9971240;28;20421;-66
2023/07/26 15:34:18;;;;;;;2.97;0.70;;;;;;;;;;9981173;28;20054;-66
2023/07/26 15:39:09;;;;;;;0.70;0.70;;;;;;;;;;9981465;28;20105;-66
2023/07/26 15:44:01;;;;;;;0.90;0.75;;;;;;;;;;9981957;28;20128;-67
2023/07/26 15:48:56;;;;;;;1.75;1.23;;;;;;;;;;9972731;28;20039;-67
2023/07/26 15:53:49;;;;;;;1.55;0.90;;;;;;;;;;9963191;28;20149;-66
2023/07/26 15:58:41;;;;;;;1.02;0.90;;;;;;;;;;9945772;28;20105;-67
2023/07/26 16:03:33;;;;;;;5.47;1.52;;;;;;;;;;9978401;28;20755;-67
2023/07/26 16:08:25;;;;;;;3.45;0.90;;;;;;;;;;9977136;28;20160;-67
2023/07/26 16:13:20;;;;;;;1.25;0.68;;;;;;;;;;9976844;28;20065;-67
2023/07/26 16:18:12;;;;;;;2.75;1.30;;;;;;;;;;9975380;28;20046;-67
2023/07/26 16:23:05;;;;;;;1.05;0.70;;;;;;;;;;9968840;28;20039;-67
2023/07/26 16:27:57;;;;;;;1.30;0.80;;;;;;;;;;9966590;28;20125;-67
2023/07/26 16:32:49;;;;;;;2.35;1.13;;;;;;;;;;9972192;28;20134;-67
2023/07/26 16:37:41;;;;;;;2.75;0.90;;;;;;;;;;9974219;28;20035;-68
2023/07/26 16:42:33;;;;;;;3.30;1.10;;;;;;;;;;9970238;28;20042;-67
2023/07/26 16:47:25;;;;;;;2.10;0.98;;;;;;;;;;9973415;28;20057;-67
2023/07/26 16:52:18;;;;;;;1.00;0.85;;;;;;;;;;9997155;28;20038;-67
2023/07/26 16:57:10;;;;;;;1.40;1.20;;;;;;;;;;10020884;28;20054;-68
2023/07/26 17:02:02;;;;;;;1.73;1.23;;;;;;;;;;10022702;28;20451;-68
2023/07/26 17:06:54;;;;;;;1.20;1.00;;;;;;;;;;10020814;28;20046;-67
2023/07/26 17:11:46;;;;;;;1.20;1.10;;;;;;;;;;10021062;28;20346;-67
2023/07/26 17:16:38;;;;;;;1.40;1.25;;;;;;;;;;10013025;28;20104;-68
2023/07/26 17:21:30;;;;;;;6.10;0.95;;;;;;;;;;10029430;28;20198;-68
2023/07/26 17:26:22;;;;;;;2.28;1.50;;;;;;;;;;10029557;28;20061;-67
2023/07/26 17:31:14;;;;;;;2.55;1.00;;;;;;;;;;10027943;28;20050;-67
2023/07/26 17:36:12;;;;;;;2.63;1.05;;;;;;;;;;10028466;28;20061;-68
2023/07/26 17:41:05;;;;;;;4.78;1.48;;;;;;;;;;10028332;28;20050;-66
2023/07/26 17:45:57;;;;;;;1.55;1.10;;;;;;;;;;10028577;28;20097;-67
2023/07/26 17:50:53;;;;;;;2.05;1.20;;;;;;;;;;10028367;28;20109;-67
2023/07/26 17:55:46;;;;;;;3.90;2.00;;;;;;;;;;10030695;28;20051;-68
2023/07/26 18:00:38;;;;;;;1.33;1.20;;;;;;;;;;10026884;28;20040;-68
2023/07/26 18:05:31;;;;;;;1.80;1.40;;;;;;;;;;10019833;28;20376;-67
2023/07/26 18:10:24;;;;;;;2.53;2.05;;;;;;;;;;10029980;28;20490;-67
2023/07/26 18:15:16;;;;;;;1.90;1.42;;;;;;;;;;10029500;28;20076;-67
2023/07/26 18:20:08;;;;;;;3.22;0.93;;;;;;;;;;10028338;28;20060;-67
2023/07/26 18:25:00;;;;;;;2.53;1.17;;;;;;;;;;10009218;28;20050;-68
2023/07/26 18:29:53;;;;;;;4.80;1.60;;;;;;;;;;10028139;28;20411;-67
2023/07/26 18:34:45;;;;;;;4.60;1.40;;;;;;;;;;10016056;28;20050;-68
2023/07/26 18:39:37;;;;;;;5.35;2.08;;;;;;;;;;10028828;28;20045;-68
2023/07/26 18:44:29;;;;;;;5.50;1.48;;;;;;;;;;10028514;28;20155;-67
2023/07/26 18:49:21;;;;;;;2.33;1.42;;;;;;;;;;10002681;28;20042;-68
2023/07/26 18:54:14;;;;;;;3.75;1.52;;;;;;;;;;10027713;28;20130;-68
2023/07/26 18:59:06;;;;;;;2.92;1.65;;;;;;;;;;10027581;28;20045;-66
2023/07/26 19:03:59;;;;;;;2.30;1.70;;;;;;;;;;10028203;28;20068;-68
2023/07/26 19:08:51;;;;;;;1.90;1.70;;;;;;;;;;10027017;28;20159;-67
2023/07/26 19:13:45;;;;;;;3.28;1.60;;;;;;;;;;10027230;28;20049;-67
2023/07/26 19:18:37;;;;;;;1.92;1.50;;;;;;;;;;10027707;28;20042;-68
2023/07/26 19:23:29;;;;;;;4.15;1.42;;;;;;;;;;10027372;28;20042;-66
2023/07/26 19:28:21;;;;;;;3.03;1.30;;;;;;;;;;10026993;28;20077;-68
2023/07/26 19:33:13;;;;;;;3.17;1.67;;;;;;;;;;10026832;28;20173;-68
2023/07/26 19:38:06;;;;;;;2.38;1.77;;;;;;;;;;10026269;28;20045;-68
2023/07/26 19:42:58;;;;;;;1.98;1.50;;;;;;;;;;10026825;28;20490;-68
2023/07/26 19:47:50;;;;;;;3.15;1.65;;;;;;;;;;10026798;28;20049;-68
2023/07/26 19:52:42;;;;;;;4.93;1.75;;;;;;;;;;10026569;28;20050;-68
2023/07/26 19:57:34;;;;;;;3.67;1.50;;;;;;;;;;10025941;28;20476;-68
2023/07/26 20:02:27;;;;;;;1.85;1.60;;;;;;;;;;10027047;28;20073;-68
2023/07/26 20:07:19;;;;;;;1.90;1.42;;;;;;;;;;10026187;28;20038;-68
2023/07/26 20:12:11;;;;;;;3.33;1.88;;;;;;;;;;10025372;28;20755;-69
2023/07/26 20:17:03;;;;;;;4.88;1.92;;;;;;;;;;10026315;28;20502;-69
2023/07/26 20:21:55;;;;;;;2.58;1.95;;;;;;;;;;10021533;28;20048;-68
2023/07/26 20:26:47;;;;;;;1.58;1.27;;;;;;;;;;10020493;28;20061;-69
2023/07/26 20:31:38;;;;;;;3.15;2.17;;;;;;;;;;10020743;28;20042;-68
2023/07/26 20:36:30;;;;;;;5.32;1.50;;;;;;;;;;10007203;28;20046;-68
2023/07/26 20:41:23;;;;;;;2.22;1.70;;;;;;;;;;10020640;28;20042;-68
2023/07/26 20:46:15;;;;;;;2.05;1.60;;;;;;;;;;10020636;28;20080;-68
2023/07/26 20:51:07;;;;;;;1.30;1.20;;;;;;;;;;10023068;28;20133;-68
2023/07/26 20:56:00;;;;;;;2.30;2.00;;;;;;;;;;10027711;28;20341;-67
2023/07/26 21:00:51;;;;;;;6.30;1.90;;;;;;;;;;10029896;28;20038;-68
2023/07/26 21:05:47;;;;;;;2.22;1.70;;;;;;;;;;9998059;28;20057;-69
2023/07/26 21:10:39;;;;;;;1.80;1.52;;;;;;;;;;9985870;28;20674;-68
2023/07/26 21:15:32;;;;;;;5.53;1.80;;;;;;;;;;9985374;28;20050;-68
2023/07/26 21:20:24;;;;;;;1.45;1.35;;;;;;;;;;9985619;28;20043;-68
2023/07/26 21:25:16;;;;;;;1.90;1.70;;;;;;;;;;9985955;28;20039;-68
2023/07/26 21:30:08;;;;;;;1.92;1.60;;;;;;;;;;9987482;28;20050;-69
2023/07/26 21:35:00;;;;;;;1.95;1.40;;;;;;;;;;9986665;28;20157;-69
2023/07/26 21:39:52;;;;;;;2.22;1.77;;;;;;;;;;9991652;28;20047;-70
2023/07/26 21:44:43;;;;;;;1.73;1.38;;;;;;;;;;10029794;28;20045;-69
2023/07/26 21:49:35;;;;;;;1.42;1.20;;;;;;;;;;10029786;28;20117;-68
2023/07/26 21:54:27;;;;;;;4.53;1.67;;;;;;;;;;10029919;28;20048;-69
2023/07/26 21:59:19;;;;;;;3.42;2.20;;;;;;;;;;10028732;28;20092;-68
2023/07/26 22:04:11;;;;;;;5.15;2.00;;;;;;;;;;10022149;28;20095;-69
2023/07/26 22:09:04;;;;;;;4.40;2.40;;;;;;;;;;10022218;28;20473;-66
2023/07/26 22:13:56;;;;;;;3.08;1.55;;;;;;;;;;10021568;28;20132;-71
2023/07/26 22:18:48;;;;;;;5.70;2.10;;;;;;;;;;9990797;28;20046;-70
2023/07/26 22:23:40;;;;;;;2.90;1.90;;;;;;;;;;9975571;28;20092;-68
2023/07/26 22:28:32;;;;;;;6.95;2.20;;;;;;;;;;9962467;28;20647;-67
2023/07/26 22:33:24;;;;;;;2.60;1.70;;;;;;;;;;9952697;28;20038;-69
2023/07/26 22:38:15;;;;;;;4.43;1.88;;;;;;;;;;9965037;28;20061;-69
2023/07/26 22:43:07;;;;;;;2.97;1.52;;;;;;;;;;9958562;28;20092;-68
2023/07/26 22:47:59;;;;;;;2.63;1.70;;;;;;;;;;9974388;28;20468;-67
2023/07/26 22:52:54;;;;;;;2.72;1.65;;;;;;;;;;9988127;28;20050;-69
2023/07/26 22:57:45;;;;;;;4.03;1.73;;;;;;;;;;9965604;28;20053;-69
2023/07/26 23:02:37;;;;;;;3.92;1.52;;;;;;;;;;9987608;28;20047;-69
2023/07/26 23:07:29;;;;;;;3.75;1.88;;;;;;;;;;9987210;28;20640;-69
2023/07/26 23:12:21;;;;;;;5.30;1.60;;;;;;;;;;9977881;28;20042;-68
2023/07/26 23:17:13;;;;;;;2.20;1.60;;;;;;;;;;9969326;28;20113;-69
2023/07/26 23:22:06;;;;;;;4.78;2.08;;;;;;;;;;9980229;28;20045;-67
2023/07/26 23:26:58;;;;;;;3.83;1.77;;;;;;;;;;9977498;28;20042;-69
2023/07/26 23:31:53;;;;;;;6.75;2.60;;;;;;;;;;9983433;28;20038;-68
2023/07/26 23:36:45;;;;;;;2.60;1.60;;;;;;;;;;9969877;28;20555;-67
2023/07/26 23:41:37;;;;;;;3.40;1.92;;;;;;;;;;9970337;28;20502;-69
2023/07/26 23:46:29;;;;;;;7.55;1.98;;;;;;;;;;9969545;28;20054;-68
2023/07/26 23:51:22;;;;;;;6.63;1.98;;;;;;;;;;9963511;28;20042;-68
2023/07/26 23:56:14;;;;;;;3.75;1.70;;;;;;;;;;9963196;28;20054;-65
